sensor_id;sensor_type;location;lat;lon;timestamp;P1;durP1;ratioP1;P2;durP2;ratioP2
33206;SDS011;19565;46.602;11.534;2023-12-28T00:02:05;3.47;;;2.17;;
33206;SDS011;19565;46.602;11.534;2023-12-28T00:04:33;1.50;;;1.47;;
33206;SDS011;19565;46.602;11.534;2023-12-28T00:07:03;3.90;;;1.73;;
33206;SDS011;19565;46.602;11.534;2023-12-28T00:09:31;3.77;;;1.47;;
33206;SDS011;19565;46.602;11.534;2023-12-28T00:12:02;1.10;;;1.10;;
33206;SDS011;19565;46.602;11.534;2023-12-28T00:14:36;1.67;;;1.57;;
33206;SDS011;19565;46.602;11.534;2023-12-28T00:17:04;1.37;;;1.27;;
33206;SDS011;19565;46.602;11.534;2023-12-28T00:19:32;2.63;;;1.93;;
33206;SDS011;19565;46.602;11.534;2023-12-28T00:22:00;8.33;;;2.83;;
33206;SDS011;19565;46.602;11.534;2023-12-28T00:24:30;1.63;;;1.53;;
33206;SDS011;19565;46.602;11.534;2023-12-28T00:26:58;1.63;;;1.53;;
33206;SDS011;19565;46.602;11.534;2023-12-28T00:29:26;1.77;;;1.67;;
33206;SDS011;19565;46.602;11.534;2023-12-28T00:31:55;1.33;;;1.33;;
33206;SDS011;19565;46.602;11.534;2023-12-28T00:34:23;1.40;;;1.40;;
33206;SDS011;19565;46.602;11.534;2023-12-28T00:36:51;2.23;;;2.03;;
33206;SDS011;19565;46.602;11.534;2023-12-28T00:39:19;1.67;;;1.57;;
33206;SDS011;19565;46.602;11.534;2023-12-28T00:41:48;2.43;;;2.23;;
33206;SDS011;19565;46.602;11.534;2023-12-28T00:44:16;1.27;;;1.27;;
33206;SDS011;19565;46.602;11.534;2023-12-28T00:46:44;1.67;;;1.57;;
33206;SDS011;19565;46.602;11.534;2023-12-28T00:49:12;5.23;;;4.83;;
33206;SDS011;19565;46.602;11.534;2023-12-28T00:51:40;5.27;;;4.97;;
33206;SDS011;19565;46.602;11.534;2023-12-28T00:54:08;5.77;;;5.20;;
33206;SDS011;19565;46.602;11.534;2023-12-28T00:56:36;8.40;;;6.17;;
33206;SDS011;19565;46.602;11.534;2023-12-28T00:59:06;6.10;;;5.70;;
33206;SDS011;19565;46.602;11.534;2023-12-28T01:01:34;6.80;;;6.40;;
33206;SDS011;19565;46.602;11.534;2023-12-28T01:04:02;4.73;;;4.43;;
33206;SDS011;19565;46.602;11.534;2023-12-28T01:06:30;6.67;;;6.20;;
33206;SDS011;19565;46.602;11.534;2023-12-28T01:08:58;6.27;;;5.83;;
33206;SDS011;19565;46.602;11.534;2023-12-28T01:11:26;13.97;;;5.70;;
33206;SDS011;19565;46.602;11.534;2023-12-28T01:13:55;7.03;;;6.57;;
33206;SDS011;19565;46.602;11.534;2023-12-28T01:16:25;5.07;;;4.77;;
33206;SDS011;19565;46.602;11.534;2023-12-28T01:18:53;12.73;;;12.07;;
33206;SDS011;19565;46.602;11.534;2023-12-28T01:21:21;0.90;;;0.90;;
33206;SDS011;19565;46.602;11.534;2023-12-28T01:23:50;4.77;;;3.43;;
33206;SDS011;19565;46.602;11.534;2023-12-28T01:26:18;1.53;;;1.50;;
33206;SDS011;19565;46.602;11.534;2023-12-28T01:28:46;1.40;;;1.40;;
33206;SDS011;19565;46.602;11.534;2023-12-28T01:31:14;1.90;;;1.77;;
33206;SDS011;19565;46.602;11.534;2023-12-28T01:33:44;1.37;;;1.20;;
33206;SDS011;19565;46.602;11.534;2023-12-28T01:36:16;1.10;;;1.10;;
33206;SDS011;19565;46.602;11.534;2023-12-28T01:38:45;1.17;;;1.17;;
33206;SDS011;19565;46.602;11.534;2023-12-28T01:41:13;1.87;;;1.73;;
33206;SDS011;19565;46.602;11.534;2023-12-28T01:43:41;1.47;;;1.40;;
33206;SDS011;19565;46.602;11.534;2023-12-28T01:46:10;3.10;;;2.23;;
33206;SDS011;19565;46.602;11.534;2023-12-28T01:48:44;2.20;;;2.10;;
33206;SDS011;19565;46.602;11.534;2023-12-28T01:51:14;8.23;;;2.17;;
33206;SDS011;19565;46.602;11.534;2023-12-28T01:53:44;1.03;;;1.03;;
33206;SDS011;19565;46.602;11.534;2023-12-28T01:56:14;1.20;;;1.20;;
33206;SDS011;19565;46.602;11.534;2023-12-28T01:58:44;1.70;;;1.60;;
33206;SDS011;19565;46.602;11.534;2023-12-28T02:01:13;1.63;;;1.53;;
33206;SDS011;19565;46.602;11.534;2023-12-28T02:03:42;1.93;;;1.83;;
33206;SDS011;19565;46.602;11.534;2023-12-28T02:06:11;1.20;;;1.20;;
33206;SDS011;19565;46.602;11.534;2023-12-28T02:08:43;4.63;;;2.40;;
33206;SDS011;19565;46.602;11.534;2023-12-28T02:11:11;1.00;;;1.00;;
33206;SDS011;19565;46.602;11.534;2023-12-28T02:13:38;0.90;;;0.90;;
33206;SDS011;19565;46.602;11.534;2023-12-28T02:16:09;2.30;;;2.10;;
33206;SDS011;19565;46.602;11.534;2023-12-28T02:18:42;1.93;;;1.83;;
33206;SDS011;19565;46.602;11.534;2023-12-28T02:21:14;0.97;;;0.97;;
33206;SDS011;19565;46.602;11.534;2023-12-28T02:23:47;0.90;;;0.90;;
33206;SDS011;19565;46.602;11.534;2023-12-28T02:26:17;0.77;;;0.77;;
33206;SDS011;19565;46.602;11.534;2023-12-28T02:28:45;1.23;;;1.23;;
33206;SDS011;19565;46.602;11.534;2023-12-28T02:31:14;1.20;;;1.20;;
33206;SDS011;19565;46.602;11.534;2023-12-28T02:33:48;1.43;;;1.43;;
33206;SDS011;19565;46.602;11.534;2023-12-28T02:36:26;0.97;;;0.97;;
33206;SDS011;19565;46.602;11.534;2023-12-28T02:38:55;4.13;;;3.93;;
33206;SDS011;19565;46.602;11.534;2023-12-28T02:41:27;3.83;;;3.63;;
33206;SDS011;19565;46.602;11.534;2023-12-28T02:43:55;4.37;;;4.13;;
33206;SDS011;19565;46.602;11.534;2023-12-28T02:46:23;4.00;;;3.80;;
33206;SDS011;19565;46.602;11.534;2023-12-28T02:48:51;4.40;;;4.20;;
33206;SDS011;19565;46.602;11.534;2023-12-28T02:51:23;5.20;;;4.90;;
33206;SDS011;19565;46.602;11.534;2023-12-28T02:53:52;5.57;;;5.27;;
33206;SDS011;19565;46.602;11.534;2023-12-28T02:56:20;6.73;;;6.13;;
33206;SDS011;19565;46.602;11.534;2023-12-28T02:58:49;5.97;;;5.47;;
33206;SDS011;19565;46.602;11.534;2023-12-28T03:01:17;5.40;;;5.10;;
33206;SDS011;19565;46.602;11.534;2023-12-28T03:03:45;5.47;;;5.17;;
33206;SDS011;19565;46.602;11.534;2023-12-28T03:06:13;5.50;;;5.20;;
33206;SDS011;19565;46.602;11.534;2023-12-28T03:08:42;6.53;;;6.13;;
33206;SDS011;19565;46.602;11.534;2023-12-28T03:11:10;5.73;;;5.43;;
33206;SDS011;19565;46.602;11.534;2023-12-28T03:13:38;6.10;;;5.60;;
33206;SDS011;19565;46.602;11.534;2023-12-28T03:16:07;5.57;;;5.27;;
33206;SDS011;19565;46.602;11.534;2023-12-28T03:18:35;5.17;;;4.87;;
33206;SDS011;19565;46.602;11.534;2023-12-28T03:21:04;5.83;;;5.43;;
33206;SDS011;19565;46.602;11.534;2023-12-28T03:23:32;6.73;;;6.23;;
33206;SDS011;19565;46.602;11.534;2023-12-28T03:26:00;5.60;;;5.30;;
33206;SDS011;19565;46.602;11.534;2023-12-28T03:28:28;7.50;;;7.10;;
33206;SDS011;19565;46.602;11.534;2023-12-28T03:30:56;5.40;;;5.10;;
33206;SDS011;19565;46.602;11.534;2023-12-28T03:33:26;6.77;;;6.20;;
33206;SDS011;19565;46.602;11.534;2023-12-28T03:35:55;5.20;;;4.90;;
33206;SDS011;19565;46.602;11.534;2023-12-28T03:38:23;6.93;;;6.53;;
33206;SDS011;19565;46.602;11.534;2023-12-28T03:40:51;5.20;;;4.90;;
33206;SDS011;19565;46.602;11.534;2023-12-28T03:43:19;5.23;;;4.93;;
33206;SDS011;19565;46.602;11.534;2023-12-28T03:45:47;6.03;;;5.63;;
33206;SDS011;19565;46.602;11.534;2023-12-28T03:48:15;5.30;;;5.00;;
33206;SDS011;19565;46.602;11.534;2023-12-28T03:50:45;5.43;;;5.13;;
33206;SDS011;19565;46.602;11.534;2023-12-28T03:53:12;6.43;;;6.00;;
33206;SDS011;19565;46.602;11.534;2023-12-28T03:55:40;5.87;;;5.57;;
33206;SDS011;19565;46.602;11.534;2023-12-28T03:58:08;5.27;;;4.97;;
33206;SDS011;19565;46.602;11.534;2023-12-28T04:00:36;1.50;;;1.40;;
33206;SDS011;19565;46.602;11.534;2023-12-28T04:03:05;1.30;;;1.30;;
33206;SDS011;19565;46.602;11.534;2023-12-28T04:05:33;0.90;;;0.90;;
33206;SDS011;19565;46.602;11.534;2023-12-28T04:08:02;1.83;;;1.73;;
33206;SDS011;19565;46.602;11.534;2023-12-28T04:10:31;1.70;;;1.60;;
33206;SDS011;19565;46.602;11.534;2023-12-28T04:13:00;2.23;;;2.13;;
33206;SDS011;19565;46.602;11.534;2023-12-28T04:15:28;1.03;;;1.03;;
33206;SDS011;19565;46.602;11.534;2023-12-28T04:17:57;2.03;;;1.93;;
33206;SDS011;19565;46.602;11.534;2023-12-28T04:20:25;1.50;;;1.50;;
33206;SDS011;19565;46.602;11.534;2023-12-28T04:22:53;4.57;;;1.73;;
33206;SDS011;19565;46.602;11.534;2023-12-28T04:25:23;1.30;;;1.30;;
33206;SDS011;19565;46.602;11.534;2023-12-28T04:27:51;1.30;;;1.20;;
33206;SDS011;19565;46.602;11.534;2023-12-28T04:30:19;1.30;;;1.30;;
33206;SDS011;19565;46.602;11.534;2023-12-28T04:32:47;2.17;;;2.00;;
33206;SDS011;19565;46.602;11.534;2023-12-28T04:35:15;1.10;;;1.10;;
33206;SDS011;19565;46.602;11.534;2023-12-28T04:37:43;1.20;;;1.20;;
33206;SDS011;19565;46.602;11.534;2023-12-28T04:40:11;0.90;;;0.90;;
33206;SDS011;19565;46.602;11.534;2023-12-28T04:42:42;2.60;;;2.10;;
33206;SDS011;19565;46.602;11.534;2023-12-28T04:45:10;1.00;;;1.00;;
33206;SDS011;19565;46.602;11.534;2023-12-28T04:47:38;1.40;;;1.30;;
33206;SDS011;19565;46.602;11.534;2023-12-28T04:50:07;1.00;;;1.00;;
33206;SDS011;19565;46.602;11.534;2023-12-28T04:52:35;4.37;;;4.17;;
33206;SDS011;19565;46.602;11.534;2023-12-28T04:55:03;4.83;;;4.53;;
33206;SDS011;19565;46.602;11.534;2023-12-28T04:57:32;5.43;;;5.03;;
33206;SDS011;19565;46.602;11.534;2023-12-28T05:00:16;5.30;;;5.00;;
33206;SDS011;19565;46.602;11.534;2023-12-28T05:02:44;5.13;;;4.73;;
33206;SDS011;19565;46.602;11.534;2023-12-28T05:05:12;5.03;;;4.73;;
33206;SDS011;19565;46.602;11.534;2023-12-28T05:07:41;4.83;;;4.53;;
33206;SDS011;19565;46.602;11.534;2023-12-28T05:10:09;4.40;;;4.20;;
33206;SDS011;19565;46.602;11.534;2023-12-28T05:12:37;7.57;;;6.40;;
33206;SDS011;19565;46.602;11.534;2023-12-28T05:15:10;5.63;;;5.33;;
33206;SDS011;19565;46.602;11.534;2023-12-28T05:17:39;6.97;;;6.57;;
33206;SDS011;19565;46.602;11.534;2023-12-28T05:20:08;5.80;;;5.50;;
33206;SDS011;19565;46.602;11.534;2023-12-28T05:22:36;6.30;;;5.90;;
33206;SDS011;19565;46.602;11.534;2023-12-28T05:25:04;6.20;;;5.80;;
33206;SDS011;19565;46.602;11.534;2023-12-28T05:27:33;6.20;;;5.83;;
33206;SDS011;19565;46.602;11.534;2023-12-28T05:30:01;6.30;;;5.90;;
33206;SDS011;19565;46.602;11.534;2023-12-28T05:32:30;5.77;;;5.47;;
33206;SDS011;19565;46.602;11.534;2023-12-28T05:34:59;7.10;;;6.60;;
33206;SDS011;19565;46.602;11.534;2023-12-28T05:37:27;5.90;;;5.60;;
33206;SDS011;19565;46.602;11.534;2023-12-28T05:39:55;6.73;;;6.27;;
33206;SDS011;19565;46.602;11.534;2023-12-28T05:42:24;6.17;;;5.80;;
33206;SDS011;19565;46.602;11.534;2023-12-28T05:44:52;6.13;;;5.73;;
33206;SDS011;19565;46.602;11.534;2023-12-28T05:47:20;7.37;;;6.87;;
33206;SDS011;19565;46.602;11.534;2023-12-28T05:49:48;6.17;;;5.77;;
33206;SDS011;19565;46.602;11.534;2023-12-28T05:52:17;6.17;;;5.80;;
33206;SDS011;19565;46.602;11.534;2023-12-28T05:54:46;6.63;;;6.20;;
33206;SDS011;19565;46.602;11.534;2023-12-28T05:57:15;0.77;;;0.77;;
33206;SDS011;19565;46.602;11.534;2023-12-28T05:59:43;0.90;;;0.90;;
33206;SDS011;19565;46.602;11.534;2023-12-28T06:02:11;2.10;;;1.97;;
33206;SDS011;19565;46.602;11.534;2023-12-28T06:04:39;1.00;;;1.00;;
33206;SDS011;19565;46.602;11.534;2023-12-28T06:07:08;1.20;;;1.20;;
33206;SDS011;19565;46.602;11.534;2023-12-28T06:09:37;1.83;;;1.73;;
33206;SDS011;19565;46.602;11.534;2023-12-28T06:12:06;1.43;;;1.37;;
33206;SDS011;19565;46.602;11.534;2023-12-28T06:14:34;1.00;;;1.00;;
33206;SDS011;19565;46.602;11.534;2023-12-28T06:17:02;4.77;;;2.93;;
33206;SDS011;19565;46.602;11.534;2023-12-28T06:19:30;1.00;;;1.00;;
33206;SDS011;19565;46.602;11.534;2023-12-28T06:21:59;2.70;;;2.57;;
33206;SDS011;19565;46.602;11.534;2023-12-28T06:24:27;2.33;;;2.23;;
33206;SDS011;19565;46.602;11.534;2023-12-28T06:26:57;2.97;;;2.00;;
33206;SDS011;19565;46.602;11.534;2023-12-28T06:29:25;2.87;;;2.07;;
33206;SDS011;19565;46.602;11.534;2023-12-28T06:31:53;1.23;;;1.23;;
33206;SDS011;19565;46.602;11.534;2023-12-28T06:34:21;2.67;;;2.47;;
33206;SDS011;19565;46.602;11.534;2023-12-28T06:36:49;4.90;;;2.30;;
33206;SDS011;19565;46.602;11.534;2023-12-28T06:39:17;1.13;;;1.13;;
33206;SDS011;19565;46.602;11.534;2023-12-28T06:41:46;2.57;;;2.33;;
33206;SDS011;19565;46.602;11.534;2023-12-28T06:44:16;1.53;;;1.43;;
33206;SDS011;19565;46.602;11.534;2023-12-28T06:46:44;1.83;;;1.73;;
33206;SDS011;19565;46.602;11.534;2023-12-28T06:49:12;3.10;;;1.77;;
33206;SDS011;19565;46.602;11.534;2023-12-28T06:51:40;3.70;;;3.50;;
33206;SDS011;19565;46.602;11.534;2023-12-28T06:54:09;4.83;;;4.53;;
33206;SDS011;19565;46.602;11.534;2023-12-28T06:56:41;4.97;;;4.67;;
33206;SDS011;19565;46.602;11.534;2023-12-28T06:59:09;5.87;;;5.37;;
33206;SDS011;19565;46.602;11.534;2023-12-28T07:01:44;5.23;;;4.93;;
33206;SDS011;19565;46.602;11.534;2023-12-28T07:04:12;4.50;;;4.30;;
33206;SDS011;19565;46.602;11.534;2023-12-28T07:06:40;4.83;;;4.53;;
33206;SDS011;19565;46.602;11.534;2023-12-28T07:09:09;5.57;;;5.27;;
33206;SDS011;19565;46.602;11.534;2023-12-28T07:11:45;4.37;;;4.17;;
33206;SDS011;19565;46.602;11.534;2023-12-28T07:14:31;4.60;;;4.30;;
33206;SDS011;19565;46.602;11.534;2023-12-28T07:17:04;4.37;;;4.17;;
33206;SDS011;19565;46.602;11.534;2023-12-28T07:19:32;5.13;;;4.83;;
33206;SDS011;19565;46.602;11.534;2023-12-28T07:22:03;4.90;;;4.60;;
33206;SDS011;19565;46.602;11.534;2023-12-28T07:24:34;5.33;;;5.03;;
33206;SDS011;19565;46.602;11.534;2023-12-28T07:27:03;1.77;;;1.67;;
33206;SDS011;19565;46.602;11.534;2023-12-28T07:29:32;2.27;;;2.07;;
33206;SDS011;19565;46.602;11.534;2023-12-28T07:32:00;7.33;;;3.90;;
33206;SDS011;19565;46.602;11.534;2023-12-28T07:34:30;1.40;;;0.87;;
33206;SDS011;19565;46.602;11.534;2023-12-28T07:36:58;2.17;;;1.97;;
33206;SDS011;19565;46.602;11.534;2023-12-28T07:39:26;0.80;;;0.80;;
33206;SDS011;19565;46.602;11.534;2023-12-28T07:41:54;3.20;;;2.87;;
33206;SDS011;19565;46.602;11.534;2023-12-28T07:44:22;0.60;;;0.60;;
33206;SDS011;19565;46.602;11.534;2023-12-28T07:46:53;0.70;;;0.70;;
33206;SDS011;19565;46.602;11.534;2023-12-28T07:49:21;2.70;;;2.50;;
33206;SDS011;19565;46.602;11.534;2023-12-28T07:51:51;3.20;;;0.93;;
33206;SDS011;19565;46.602;11.534;2023-12-28T07:54:19;2.07;;;1.17;;
33206;SDS011;19565;46.602;11.534;2023-12-28T07:56:47;1.63;;;1.53;;
33206;SDS011;19565;46.602;11.534;2023-12-28T07:59:15;0.53;;;0.53;;
33206;SDS011;19565;46.602;11.534;2023-12-28T08:01:43;2.00;;;1.50;;
33206;SDS011;19565;46.602;11.534;2023-12-28T08:04:12;3.07;;;2.43;;
33206;SDS011;19565;46.602;11.534;2023-12-28T08:06:40;2.83;;;2.63;;
33206;SDS011;19565;46.602;11.534;2023-12-28T08:09:10;0.80;;;0.80;;
33206;SDS011;19565;46.602;11.534;2023-12-28T08:11:38;0.87;;;0.87;;
33206;SDS011;19565;46.602;11.534;2023-12-28T08:14:06;2.57;;;2.37;;
33206;SDS011;19565;46.602;11.534;2023-12-28T08:16:35;5.70;;;3.27;;
33206;SDS011;19565;46.602;11.534;2023-12-28T08:19:03;2.80;;;2.70;;
33206;SDS011;19565;46.602;11.534;2023-12-28T08:21:31;3.97;;;3.77;;
33206;SDS011;19565;46.602;11.534;2023-12-28T08:23:59;3.83;;;3.63;;
33206;SDS011;19565;46.602;11.534;2023-12-28T08:26:28;4.40;;;4.07;;
33206;SDS011;19565;46.602;11.534;2023-12-28T08:28:58;1.30;;;1.30;;
33206;SDS011;19565;46.602;11.534;2023-12-28T08:31:26;3.93;;;3.63;;
33206;SDS011;19565;46.602;11.534;2023-12-28T08:33:56;3.93;;;3.73;;
33206;SDS011;19565;46.602;11.534;2023-12-28T08:36:24;3.70;;;3.50;;
33206;SDS011;19565;46.602;11.534;2023-12-28T08:38:54;4.97;;;4.57;;
33206;SDS011;19565;46.602;11.534;2023-12-28T08:41:22;4.73;;;4.33;;
33206;SDS011;19565;46.602;11.534;2023-12-28T08:43:52;3.93;;;3.73;;
33206;SDS011;19565;46.602;11.534;2023-12-28T08:46:21;5.60;;;5.20;;
33206;SDS011;19565;46.602;11.534;2023-12-28T08:48:50;11.93;;;6.27;;
33206;SDS011;19565;46.602;11.534;2023-12-28T08:51:19;2.30;;;2.13;;
33206;SDS011;19565;46.602;11.534;2023-12-28T08:53:47;2.03;;;1.93;;
33206;SDS011;19565;46.602;11.534;2023-12-28T08:56:19;1.27;;;1.20;;
33206;SDS011;19565;46.602;11.534;2023-12-28T08:58:48;2.60;;;2.40;;
33206;SDS011;19565;46.602;11.534;2023-12-28T09:01:20;4.87;;;4.57;;
33206;SDS011;19565;46.602;11.534;2023-12-28T09:03:49;4.80;;;4.50;;
33206;SDS011;19565;46.602;11.534;2023-12-28T09:06:19;5.83;;;5.43;;
33206;SDS011;19565;46.602;11.534;2023-12-28T09:08:48;5.80;;;5.43;;
33206;SDS011;19565;46.602;11.534;2023-12-28T09:11:18;5.97;;;5.63;;
33206;SDS011;19565;46.602;11.534;2023-12-28T09:13:46;4.73;;;4.43;;
33206;SDS011;19565;46.602;11.534;2023-12-28T09:16:14;5.57;;;5.23;;
33206;SDS011;19565;46.602;11.534;2023-12-28T09:18:45;5.87;;;5.47;;
33206;SDS011;19565;46.602;11.534;2023-12-28T09:21:13;9.27;;;5.60;;
33206;SDS011;19565;46.602;11.534;2023-12-28T09:23:43;5.37;;;5.07;;
33206;SDS011;19565;46.602;11.534;2023-12-28T09:26:11;5.27;;;4.97;;
33206;SDS011;19565;46.602;11.534;2023-12-28T09:28:39;5.93;;;5.53;;
33206;SDS011;19565;46.602;11.534;2023-12-28T09:31:07;11.63;;;5.93;;
33206;SDS011;19565;46.602;11.534;2023-12-28T09:33:35;6.67;;;6.07;;
33206;SDS011;19565;46.602;11.534;2023-12-28T09:36:05;6.47;;;6.07;;
33206;SDS011;19565;46.602;11.534;2023-12-28T09:38:34;7.87;;;7.23;;
33206;SDS011;19565;46.602;11.534;2023-12-28T09:41:04;8.50;;;6.17;;
33206;SDS011;19565;46.602;11.534;2023-12-28T09:43:40;6.80;;;6.30;;
33206;SDS011;19565;46.602;11.534;2023-12-28T09:46:13;6.10;;;5.73;;
33206;SDS011;19565;46.602;11.534;2023-12-28T09:48:41;0.90;;;0.90;;
33206;SDS011;19565;46.602;11.534;2023-12-28T09:51:12;5.77;;;5.47;;
33206;SDS011;19565;46.602;11.534;2023-12-28T09:53:42;5.70;;;5.40;;
33206;SDS011;19565;46.602;11.534;2023-12-28T09:56:11;5.60;;;5.30;;
33206;SDS011;19565;46.602;11.534;2023-12-28T09:58:40;5.57;;;5.27;;
33206;SDS011;19565;46.602;11.534;2023-12-28T10:01:11;6.33;;;5.93;;
33206;SDS011;19565;46.602;11.534;2023-12-28T10:03:45;7.33;;;6.73;;
33206;SDS011;19565;46.602;11.534;2023-12-28T10:06:15;2.77;;;2.57;;
33206;SDS011;19565;46.602;11.534;2023-12-28T10:08:46;5.23;;;4.93;;
33206;SDS011;19565;46.602;11.534;2023-12-28T10:11:15;6.23;;;5.80;;
33206;SDS011;19565;46.602;11.534;2023-12-28T10:13:44;6.60;;;5.60;;
33206;SDS011;19565;46.602;11.534;2023-12-28T10:16:15;6.33;;;5.93;;
33206;SDS011;19565;46.602;11.534;2023-12-28T10:18:44;5.43;;;5.13;;
33206;SDS011;19565;46.602;11.534;2023-12-28T10:21:13;5.57;;;5.27;;
33206;SDS011;19565;46.602;11.534;2023-12-28T10:23:42;6.53;;;6.13;;
33206;SDS011;19565;46.602;11.534;2023-12-28T10:26:10;7.00;;;6.60;;
33206;SDS011;19565;46.602;11.534;2023-12-28T10:28:39;6.47;;;6.07;;
33206;SDS011;19565;46.602;11.534;2023-12-28T10:31:07;6.70;;;6.30;;
33206;SDS011;19565;46.602;11.534;2023-12-28T10:33:39;7.97;;;7.23;;
33206;SDS011;19565;46.602;11.534;2023-12-28T10:36:09;7.17;;;6.77;;
33206;SDS011;19565;46.602;11.534;2023-12-28T10:38:37;6.60;;;6.20;;
33206;SDS011;19565;46.602;11.534;2023-12-28T10:41:07;5.57;;;5.27;;
33206;SDS011;19565;46.602;11.534;2023-12-28T10:43:40;6.50;;;6.10;;
33206;SDS011;19565;46.602;11.534;2023-12-28T10:46:15;5.63;;;5.33;;
33206;SDS011;19565;46.602;11.534;2023-12-28T10:48:53;6.30;;;5.90;;
33206;SDS011;19565;46.602;11.534;2023-12-28T10:51:24;6.90;;;6.50;;
33206;SDS011;19565;46.602;11.534;2023-12-28T10:53:54;9.17;;;8.67;;
33206;SDS011;19565;46.602;11.534;2023-12-28T10:56:33;12.47;;;11.53;;
33206;SDS011;19565;46.602;11.534;2023-12-28T10:59:05;9.23;;;8.73;;
33206;SDS011;19565;46.602;11.534;2023-12-28T11:01:42;9.43;;;8.80;;
33206;SDS011;19565;46.602;11.534;2023-12-28T11:04:15;12.47;;;11.50;;
33206;SDS011;19565;46.602;11.534;2023-12-28T11:06:47;9.83;;;9.23;;
33206;SDS011;19565;46.602;11.534;2023-12-28T11:09:16;9.73;;;9.23;;
33206;SDS011;19565;46.602;11.534;2023-12-28T11:11:47;11.60;;;11.00;;
33206;SDS011;19565;46.602;11.534;2023-12-28T11:14:18;11.93;;;11.33;;
33206;SDS011;19565;46.602;11.534;2023-12-28T11:16:49;13.47;;;12.77;;
33206;SDS011;19565;46.602;11.534;2023-12-28T11:19:19;14.80;;;14.00;;
33206;SDS011;19565;46.602;11.534;2023-12-28T11:21:49;12.73;;;12.07;;
33206;SDS011;19565;46.602;11.534;2023-12-28T11:24:19;15.80;;;15.00;;
33206;SDS011;19565;46.602;11.534;2023-12-28T11:26:53;15.23;;;14.53;;
33206;SDS011;19565;46.602;11.534;2023-12-28T11:29:21;16.53;;;15.73;;
33206;SDS011;19565;46.602;11.534;2023-12-28T11:31:53;14.20;;;13.50;;
33206;SDS011;19565;46.602;11.534;2023-12-28T11:34:24;13.50;;;12.80;;
33206;SDS011;19565;46.602;11.534;2023-12-28T11:36:54;15.40;;;14.50;;
33206;SDS011;19565;46.602;11.534;2023-12-28T11:39:29;17.57;;;16.67;;
33206;SDS011;19565;46.602;11.534;2023-12-28T11:42:03;16.13;;;15.33;;
33206;SDS011;19565;46.602;11.534;2023-12-28T11:44:36;16.30;;;15.50;;
33206;SDS011;19565;46.602;11.534;2023-12-28T11:47:10;17.10;;;16.30;;
33206;SDS011;19565;46.602;11.534;2023-12-28T11:49:39;16.47;;;15.57;;
33206;SDS011;19565;46.602;11.534;2023-12-28T11:52:21;15.13;;;14.43;;
33206;SDS011;19565;46.602;11.534;2023-12-28T11:54:53;15.60;;;14.87;;
33206;SDS011;19565;46.602;11.534;2023-12-28T11:57:23;16.60;;;15.80;;
33206;SDS011;19565;46.602;11.534;2023-12-28T11:59:52;17.80;;;17.00;;
33206;SDS011;19565;46.602;11.534;2023-12-28T12:02:22;16.80;;;16.00;;
33206;SDS011;19565;46.602;11.534;2023-12-28T12:04:51;16.23;;;15.43;;
33206;SDS011;19565;46.602;11.534;2023-12-28T12:07:21;4.93;;;4.47;;
33206;SDS011;19565;46.602;11.534;2023-12-28T12:09:50;3.13;;;3.00;;
33206;SDS011;19565;46.602;11.534;2023-12-28T12:12:24;10.13;;;5.20;;
33206;SDS011;19565;46.602;11.534;2023-12-28T12:14:53;6.70;;;6.30;;
33206;SDS011;19565;46.602;11.534;2023-12-28T12:17:22;14.70;;;14.00;;
33206;SDS011;19565;46.602;11.534;2023-12-28T12:19:51;16.87;;;16.07;;
33206;SDS011;19565;46.602;11.534;2023-12-28T12:22:22;16.57;;;15.77;;
33206;SDS011;19565;46.602;11.534;2023-12-28T12:24:55;27.17;;;17.53;;
33206;SDS011;19565;46.602;11.534;2023-12-28T12:27:27;18.13;;;17.23;;
33206;SDS011;19565;46.602;11.534;2023-12-28T12:29:55;20.23;;;19.20;;
33206;SDS011;19565;46.602;11.534;2023-12-28T12:32:23;17.13;;;16.03;;
33206;SDS011;19565;46.602;11.534;2023-12-28T12:34:51;17.67;;;16.87;;
33206;SDS011;19565;46.602;11.534;2023-12-28T12:37:20;17.70;;;16.90;;
33206;SDS011;19565;46.602;11.534;2023-12-28T12:39:48;17.27;;;16.47;;
33206;SDS011;19565;46.602;11.534;2023-12-28T12:42:17;18.53;;;17.63;;
33206;SDS011;19565;46.602;11.534;2023-12-28T12:44:47;20.03;;;19.13;;
33206;SDS011;19565;46.602;11.534;2023-12-28T12:47:15;20.67;;;19.77;;
33206;SDS011;19565;46.602;11.534;2023-12-28T12:49:43;19.20;;;18.30;;
33206;SDS011;19565;46.602;11.534;2023-12-28T12:52:12;20.43;;;19.53;;
33206;SDS011;19565;46.602;11.534;2023-12-28T12:54:40;20.33;;;19.43;;
33206;SDS011;19565;46.602;11.534;2023-12-28T12:57:08;20.37;;;19.47;;
33206;SDS011;19565;46.602;11.534;2023-12-28T12:59:37;21.97;;;20.87;;
33206;SDS011;19565;46.602;11.534;2023-12-28T13:02:08;20.83;;;19.93;;
33206;SDS011;19565;46.602;11.534;2023-12-28T13:04:37;21.43;;;20.47;;
33206;SDS011;19565;46.602;11.534;2023-12-28T13:07:06;22.90;;;21.90;;
33206;SDS011;19565;46.602;11.534;2023-12-28T13:09:35;21.87;;;20.87;;
33206;SDS011;19565;46.602;11.534;2023-12-28T13:12:03;22.90;;;21.90;;
33206;SDS011;19565;46.602;11.534;2023-12-28T13:14:32;22.90;;;21.90;;
33206;SDS011;19565;46.602;11.534;2023-12-28T13:17:00;23.47;;;22.47;;
33206;SDS011;19565;46.602;11.534;2023-12-28T13:19:30;21.47;;;20.47;;
33206;SDS011;19565;46.602;11.534;2023-12-28T13:21:58;21.43;;;20.43;;
33206;SDS011;19565;46.602;11.534;2023-12-28T13:24:26;22.40;;;21.40;;
33206;SDS011;19565;46.602;11.534;2023-12-28T13:26:54;21.57;;;20.57;;
33206;SDS011;19565;46.602;11.534;2023-12-28T13:29:23;21.67;;;20.67;;
33206;SDS011;19565;46.602;11.534;2023-12-28T13:31:51;11.10;;;10.50;;
33206;SDS011;19565;46.602;11.534;2023-12-28T13:34:21;12.00;;;11.30;;
33206;SDS011;19565;46.602;11.534;2023-12-28T13:36:50;11.00;;;10.40;;
33206;SDS011;19565;46.602;11.534;2023-12-28T13:39:19;12.93;;;12.00;;
33206;SDS011;19565;46.602;11.534;2023-12-28T13:41:48;10.20;;;9.60;;
33206;SDS011;19565;46.602;11.534;2023-12-28T13:44:16;10.63;;;10.03;;
33206;SDS011;19565;46.602;11.534;2023-12-28T13:46:43;11.73;;;11.03;;
33206;SDS011;19565;46.602;11.534;2023-12-28T13:49:11;10.77;;;10.17;;
33206;SDS011;19565;46.602;11.534;2023-12-28T13:51:40;11.20;;;10.60;;
33206;SDS011;19565;46.602;11.534;2023-12-28T13:54:09;10.90;;;10.30;;
33206;SDS011;19565;46.602;11.534;2023-12-28T13:56:37;11.13;;;10.53;;
33206;SDS011;19565;46.602;11.534;2023-12-28T13:59:05;10.93;;;10.33;;
33206;SDS011;19565;46.602;11.534;2023-12-28T14:01:36;13.23;;;12.33;;
33206;SDS011;19565;46.602;11.534;2023-12-28T14:04:04;12.57;;;11.87;;
33206;SDS011;19565;46.602;11.534;2023-12-28T14:06:33;11.60;;;11.00;;
33206;SDS011;19565;46.602;11.534;2023-12-28T14:09:01;12.13;;;11.43;;
33206;SDS011;19565;46.602;11.534;2023-12-28T14:11:30;13.70;;;12.90;;
33206;SDS011;19565;46.602;11.534;2023-12-28T14:13:58;20.17;;;19.23;;
33206;SDS011;19565;46.602;11.534;2023-12-28T14:16:27;22.13;;;20.93;;
33206;SDS011;19565;46.602;11.534;2023-12-28T14:18:55;21.40;;;20.40;;
33206;SDS011;19565;46.602;11.534;2023-12-28T14:21:23;22.77;;;21.57;;
33206;SDS011;19565;46.602;11.534;2023-12-28T14:23:52;22.00;;;20.90;;
33206;SDS011;19565;46.602;11.534;2023-12-28T14:26:21;22.83;;;21.67;;
33206;SDS011;19565;46.602;11.534;2023-12-28T14:28:54;22.37;;;21.37;;
33206;SDS011;19565;46.602;11.534;2023-12-28T14:31:22;22.53;;;21.53;;
33206;SDS011;19565;46.602;11.534;2023-12-28T14:33:52;22.00;;;20.73;;
33206;SDS011;19565;46.602;11.534;2023-12-28T14:36:22;21.60;;;20.50;;
33206;SDS011;19565;46.602;11.534;2023-12-28T14:38:55;22.67;;;21.37;;
33206;SDS011;19565;46.602;11.534;2023-12-28T14:41:23;20.67;;;19.77;;